• Join FlightAware (Why Join?)
  • Login
  • US Flag 
03:40AM EDT


 

Airport Tracker/Info


-or-


 

Live Flight TrackerFlight Track Log ✈ AWI3778 ✈ 06-Aug-2013 ✈ KBTV - KPHL

Flight Track Log - Related Links

Times and Time Zones

All times are in EDT time to prevent confusion due to time zone crossing. See the AWI3778 flight status page for this flight to view local times or setup timezone preferences in your user account.

Time Position Orientation Groundspeed Altitude Reporting Facility
EDT Latitude Longitude Course Direction KTS MPH feet Rate Location/Type
01:52PM 44.3633 -73.1514 197° South 221 254 4,600  Level Boston Center
01:53PM 44.2944 -73.1797 196° South 252 290 6,900 2,280 Climbing Boston Center
01:54PM 44.2211 -73.2106 197° South 270 311 9,200 2,160 Climbing Boston Center
01:55PM 44.1461 -73.2414 196° South 275 316 11,300 1,500 Climbing Boston Center
01:56PM 44.0603 -73.2778 197° South 304 350 12,300 780 Climbing Boston Center
01:57PM 43.8379 -73.3896 195° South  Level FlightAware Approximate
01:57PM 43.9725 -73.3142 197° South 323 372 12,900  Level Boston Center
01:58PM 43.8847 -73.3503 197° South 328 377 13,600 1,320 Climbing Boston Center
01:59PM 43.8053 -73.3836 197° South 328 377 15,600 1,680 Climbing Boston Center
02:00PM 43.7194 -73.4167 196° South 328 377 17,100 1,260 Climbing Boston Center
02:01PM 43.6381 -73.4500 197° South 328 377 18,200 1,380 Climbing Boston Center
02:02PM 43.5250 -73.4967 197° South 345 397 19,900 1,380 Climbing Boston Center
02:03PM 43.4289 -73.5350 196° South 350 403 21,100 1,140 Climbing Boston Center
02:04PM 43.3508 -73.6192 218° Southwest 350 403 22,300 1,140 Climbing Boston Center
02:05PM 43.2750 -73.7092 221° Southwest 360 414 23,400 840 Climbing Boston Center
02:06PM 43.1925 -73.8014 219° Southwest 366 421 24,000 240 Climbing Boston Center
02:07PM 43.1144 -73.8933 221° Southwest 377 434 24,000  Level Boston Center
02:08PM 43.0486 -73.9686 220° Southwest 377 434 24,000  Level Boston Center
02:09PM 42.9725 -74.0575 221° Southwest 366 421 24,000  Level Boston Center
02:10PM 42.8983 -74.1464 221° Southwest 361 415 24,000  Level Boston Center
02:11PM 42.8219 -74.2319 219° Southwest 361 415 24,000  Level Boston Center
02:12PM 42.7433 -74.3172 219° Southwest 361 415 24,000  Level Boston Center
02:13PM 42.6667 -74.4111 222° Southwest 361 415 24,000  Level Boston Center
02:14PM 42.5861 -74.4986 219° Southwest 361 415 24,000  Level Boston Center
02:15PM 42.5072 -74.5919 221° Southwest 371 427 24,000 -120 Level Boston Center
02:16PM 42.4261 -74.6819 219° Southwest 376 433 23,800 -720 Descending Boston Center
02:17PM 42.3472 -74.7717 220° Southwest 376 433 22,600 -660 Descending Boston Center
02:19PM 42.1958 -74.9389 219° Southwest 362 417 22,000 -300 Descending New York Center
02:20PM 42.1097 -75.0144 213° Southwest 362 417 21,900 -1,080 Descending New York Center
02:21PM 42.0261 -75.0844 212° Southwest 369 425 19,900 -1,500 Descending New York Center
02:22PM 41.9422 -75.1569 213° Southwest 363 418 19,000 -600 Descending New York Center
02:23PM 41.8606 -75.2239 211° Southwest 358 412 18,800 -900 Descending New York Center
02:24PM 41.7728 -75.2931 210° Southwest 359 413 17,300 -1,620 Descending New York Center
02:25PM 41.6953 -75.3547 211° Southwest 364 419 15,600 -1,680 Descending New York Center
02:26PM 41.6158 -75.4211 212° Southwest 359 413 14,000 -1,800 Descending New York Center
02:27PM 41.5256 -75.4925 211° Southwest 353 406 12,100 -960 Descending New York Center
02:28PM 41.4417 -75.5586 211° Southwest 353 406 12,100 -60 Level New York Center
02:29PM 41.3619 -75.6192 210° Southwest 348 400 12,000 -60 Descending New York Center
02:30PM 41.2844 -75.6800 211° Southwest 355 409 12,000  Level New York Center
02:31PM 41.1883 -75.6894 184° South 338 389 12,000  Level New York Center
02:32PM 41.0906 -75.6881 179° South 353 406 12,000  Level New York Center
02:33PM 40.9822 -75.6883 180° South 353 406 12,000  Level New York Center
02:34PM 40.8822 -75.6867 179° South 358 412 12,000  Level New York Center
02:35PM 40.7903 -75.6417 160° South 358 412 12,000  Level New York Center
02:36PM 40.7092 -75.5867 153° Southeast 358 412 12,000 -420 Level New York Center
02:37PM 40.6217 -75.5367 157° South 353 406 11,200 -960 Descending New York Center
02:38PM 40.5383 -75.4872 156° South 317 365 10,200 -1,140 Descending New York Center
02:39PM 40.4661 -75.4658 167° South 289 333 9,000 -720 Descending New York Center
02:40PM 40.3972 -75.4694 182° South 270 311 8,800 -1,320 Descending New York Center
02:41PM 40.3147 -75.4500 170° South 270 311 6,400 -2,160 Descending New York Center
02:42PM 40.2492 -75.4186 160° South 264 304 4,600 -1,260 Descending New York Center
02:43PM 40.1856 -75.3897 161° South 253 291 4,000 -660 Descending New York Center
02:44PM 40.1467 -75.3708 160° South 199 229 3,300 -600 Descending New York Center
02:45PM 40.1167 -75.3500 152° Southeast 170 196 3,100 -240 Descending Philadelphia TRACON
02:46PM 40.0833 -75.3333 159° South 171 197 3,000 -60 Descending Philadelphia TRACON
02:47PM 40.0333 -75.3167 166° South 165 190 3,000 -420 Level Philadelphia TRACON
02:48PM 39.9833 -75.2833 153° Southeast 164 189 2,200 -780 Descending Philadelphia TRACON
02:49PM 39.9500 -75.2667 159° South 143 165 1,500 -780 Descending Philadelphia TRACON
02:50PM 39.9167 -75.2500 159° South 135 155 800 -720 Descending Philadelphia TRACON